sensor_id;sensor_type;location;lat;lon;timestamp;P1;durP1;ratioP1;P2;durP2;ratioP2
60436;SDS011;46289;51.992;4.498;2022-12-18T00:01:27;61.95;;;22.88;;
60436;SDS011;46289;51.992;4.498;2022-12-18T00:03:35;66.82;;;24.35;;
60436;SDS011;46289;51.992;4.498;2022-12-18T00:05:58;70.15;;;22.35;;
60436;SDS011;46289;51.992;4.498;2022-12-18T00:08:03;68.93;;;24.13;;
60436;SDS011;46289;51.992;4.498;2022-12-18T00:10:14;72.53;;;25.38;;
60436;SDS011;46289;51.992;4.498;2022-12-18T00:12:33;67.63;;;24.75;;
60436;SDS011;46289;51.992;4.498;2022-12-18T00:14:45;54.80;;;22.92;;
60436;SDS011;46289;51.992;4.498;2022-12-18T00:16:52;64.15;;;24.27;;
60436;SDS011;46289;51.992;4.498;2022-12-18T00:19:06;75.75;;;29.08;;
60436;SDS011;46289;51.992;4.498;2022-12-18T00:21:20;67.93;;;22.90;;
60436;SDS011;46289;51.992;4.498;2022-12-18T00:23:27;69.47;;;25.58;;
60436;SDS011;46289;51.992;4.498;2022-12-18T00:25:40;72.90;;;27.13;;
60436;SDS011;46289;51.992;4.498;2022-12-18T00:27:52;77.72;;;27.85;;
60436;SDS011;46289;51.992;4.498;2022-12-18T00:29:58;79.50;;;29.33;;
60436;SDS011;46289;51.992;4.498;2022-12-18T00:32:03;84.93;;;27.42;;
60436;SDS011;46289;51.992;4.498;2022-12-18T00:34:08;68.97;;;26.38;;
60436;SDS011;46289;51.992;4.498;2022-12-18T00:36:14;73.68;;;27.40;;
60436;SDS011;46289;51.992;4.498;2022-12-18T00:38:20;76.88;;;27.50;;
60436;SDS011;46289;51.992;4.498;2022-12-18T00:40:25;76.28;;;26.48;;
60436;SDS011;46289;51.992;4.498;2022-12-18T00:42:33;66.10;;;25.77;;
60436;SDS011;46289;51.992;4.498;2022-12-18T00:44:53;71.22;;;26.52;;
60436;SDS011;46289;51.992;4.498;2022-12-18T00:47:09;74.82;;;27.63;;
60436;SDS011;46289;51.992;4.498;2022-12-18T00:49:25;60.53;;;21.33;;
60436;SDS011;46289;51.992;4.498;2022-12-18T00:51:35;88.10;;;29.77;;
60436;SDS011;46289;51.992;4.498;2022-12-18T00:53:49;69.30;;;21.75;;
60436;SDS011;46289;51.992;4.498;2022-12-18T00:56:01;88.05;;;27.25;;
60436;SDS011;46289;51.992;4.498;2022-12-18T00:58:10;88.43;;;28.08;;
60436;SDS011;46289;51.992;4.498;2022-12-18T01:00:25;70.40;;;26.08;;
60436;SDS011;46289;51.992;4.498;2022-12-18T01:02:35;80.13;;;27.30;;
60436;SDS011;46289;51.992;4.498;2022-12-18T01:07:17;73.57;;;27.15;;
60436;SDS011;46289;51.992;4.498;2022-12-18T01:09:25;67.63;;;26.63;;
60436;SDS011;46289;51.992;4.498;2022-12-18T01:11:30;100.60;;;30.55;;
60436;SDS011;46289;51.992;4.498;2022-12-18T01:13:37;80.72;;;27.10;;
60436;SDS011;46289;51.992;4.498;2022-12-18T01:15:47;63.88;;;22.90;;
60436;SDS011;46289;51.992;4.498;2022-12-18T01:17:52;85.43;;;24.52;;
60436;SDS011;46289;51.992;4.498;2022-12-18T01:20:13;84.10;;;22.80;;
60436;SDS011;46289;51.992;4.498;2022-12-18T01:22:25;78.03;;;22.83;;
60436;SDS011;46289;51.992;4.498;2022-12-18T01:24:35;94.97;;;28.00;;
60436;SDS011;46289;51.992;4.498;2022-12-18T01:26:45;85.53;;;27.67;;
60436;SDS011;46289;51.992;4.498;2022-12-18T01:28:56;84.63;;;28.40;;
60436;SDS011;46289;51.992;4.498;2022-12-18T01:31:12;83.57;;;27.15;;
60436;SDS011;46289;51.992;4.498;2022-12-18T01:33:20;90.85;;;28.90;;
60436;SDS011;46289;51.992;4.498;2022-12-18T01:35:40;90.38;;;27.05;;
60436;SDS011;46289;51.992;4.498;2022-12-18T01:37:50;89.72;;;30.17;;
60436;SDS011;46289;51.992;4.498;2022-12-18T01:40:08;82.70;;;27.00;;
60436;SDS011;46289;51.992;4.498;2022-12-18T01:42:22;89.85;;;28.70;;
60436;SDS011;46289;51.992;4.498;2022-12-18T01:47:39;76.45;;;27.95;;
60436;SDS011;46289;51.992;4.498;2022-12-18T01:49:52;64.53;;;25.00;;
60436;SDS011;46289;51.992;4.498;2022-12-18T01:51:59;70.20;;;24.55;;
60436;SDS011;46289;51.992;4.498;2022-12-18T01:54:04;84.82;;;28.77;;
60436;SDS011;46289;51.992;4.498;2022-12-18T01:56:11;67.43;;;22.25;;
60436;SDS011;46289;51.992;4.498;2022-12-18T01:58:17;89.63;;;27.38;;
60436;SDS011;46289;51.992;4.498;2022-12-18T02:00:22;66.72;;;23.38;;
60436;SDS011;46289;51.992;4.498;2022-12-18T02:02:28;82.07;;;28.73;;
60436;SDS011;46289;51.992;4.498;2022-12-18T02:04:36;73.97;;;25.35;;
60436;SDS011;46289;51.992;4.498;2022-12-18T02:06:48;81.93;;;26.58;;
60436;SDS011;46289;51.992;4.498;2022-12-18T02:08:58;59.92;;;22.85;;
60436;SDS011;46289;51.992;4.498;2022-12-18T02:11:10;56.33;;;25.38;;
60436;SDS011;46289;51.992;4.498;2022-12-18T02:13:30;63.35;;;23.42;;
60436;SDS011;46289;51.992;4.498;2022-12-18T02:15:42;94.35;;;29.13;;
60436;SDS011;46289;51.992;4.498;2022-12-18T02:18:02;84.30;;;27.95;;
60436;SDS011;46289;51.992;4.498;2022-12-18T02:20:22;79.47;;;26.55;;
60436;SDS011;46289;51.992;4.498;2022-12-18T02:22:33;82.05;;;28.15;;
60436;SDS011;46289;51.992;4.498;2022-12-18T02:24:43;78.22;;;25.73;;
60436;SDS011;46289;51.992;4.498;2022-12-18T02:27:05;80.70;;;28.85;;
60436;SDS011;46289;51.992;4.498;2022-12-18T02:29:16;72.68;;;27.42;;
60436;SDS011;46289;51.992;4.498;2022-12-18T02:31:31;72.28;;;26.67;;
60436;SDS011;46289;51.992;4.498;2022-12-18T02:33:49;86.55;;;29.08;;
60436;SDS011;46289;51.992;4.498;2022-12-18T02:36:04;72.28;;;24.88;;
60436;SDS011;46289;51.992;4.498;2022-12-18T02:40:37;79.82;;;27.60;;
60436;SDS011;46289;51.992;4.498;2022-12-18T02:44:59;46.05;;;23.90;;
60436;SDS011;46289;51.992;4.498;2022-12-18T02:47:08;74.35;;;26.92;;
60436;SDS011;46289;51.992;4.498;2022-12-18T02:49:20;75.28;;;26.05;;
60436;SDS011;46289;51.992;4.498;2022-12-18T02:51:29;58.88;;;22.58;;
60436;SDS011;46289;51.992;4.498;2022-12-18T02:53:38;61.25;;;24.75;;
60436;SDS011;46289;51.992;4.498;2022-12-18T02:55:51;47.30;;;20.45;;
60436;SDS011;46289;51.992;4.498;2022-12-18T02:58:08;65.25;;;22.17;;
60436;SDS011;46289;51.992;4.498;2022-12-18T03:00:19;58.67;;;20.13;;
60436;SDS011;46289;51.992;4.498;2022-12-18T03:02:27;47.40;;;17.70;;
60436;SDS011;46289;51.992;4.498;2022-12-18T03:04:37;109.18;;;23.50;;
60436;SDS011;46289;51.992;4.498;2022-12-18T03:06:48;55.83;;;20.70;;
60436;SDS011;46289;51.992;4.498;2022-12-18T03:09:04;54.67;;;22.02;;
60436;SDS011;46289;51.992;4.498;2022-12-18T03:11:22;60.85;;;23.35;;
60436;SDS011;46289;51.992;4.498;2022-12-18T03:13:54;50.00;;;19.55;;
60436;SDS011;46289;51.992;4.498;2022-12-18T03:16:15;44.80;;;22.60;;
60436;SDS011;46289;51.992;4.498;2022-12-18T03:18:27;59.72;;;17.48;;
60436;SDS011;46289;51.992;4.498;2022-12-18T03:20:39;57.72;;;22.67;;
60436;SDS011;46289;51.992;4.498;2022-12-18T03:22:59;75.40;;;24.48;;
60436;SDS011;46289;51.992;4.498;2022-12-18T03:25:08;42.88;;;14.55;;
60436;SDS011;46289;51.992;4.498;2022-12-18T03:27:20;77.72;;;25.50;;
60436;SDS011;46289;51.992;4.498;2022-12-18T03:29:35;51.88;;;20.55;;
60436;SDS011;46289;51.992;4.498;2022-12-18T03:31:52;70.22;;;23.45;;
60436;SDS011;46289;51.992;4.498;2022-12-18T03:34:08;67.07;;;22.92;;
60436;SDS011;46289;51.992;4.498;2022-12-18T03:36:16;52.30;;;19.55;;
60436;SDS011;46289;51.992;4.498;2022-12-18T03:40:39;56.50;;;18.67;;
60436;SDS011;46289;51.992;4.498;2022-12-18T03:42:49;53.88;;;21.08;;
60436;SDS011;46289;51.992;4.498;2022-12-18T03:45:00;54.25;;;19.83;;
60436;SDS011;46289;51.992;4.498;2022-12-18T03:47:13;74.47;;;25.02;;
60436;SDS011;46289;51.992;4.498;2022-12-18T03:49:25;52.78;;;19.17;;
60436;SDS011;46289;51.992;4.498;2022-12-18T03:51:36;66.80;;;21.00;;
60436;SDS011;46289;51.992;4.498;2022-12-18T03:53:46;55.72;;;22.85;;
60436;SDS011;46289;51.992;4.498;2022-12-18T03:55:57;59.42;;;22.08;;
60436;SDS011;46289;51.992;4.498;2022-12-18T03:58:03;47.15;;;19.80;;
60436;SDS011;46289;51.992;4.498;2022-12-18T04:00:12;69.35;;;23.33;;
60436;SDS011;46289;51.992;4.498;2022-12-18T04:02:18;71.28;;;26.63;;
60436;SDS011;46289;51.992;4.498;2022-12-18T04:04:27;71.72;;;24.63;;
60436;SDS011;46289;51.992;4.498;2022-12-18T04:06:46;55.28;;;18.02;;
60436;SDS011;46289;51.992;4.498;2022-12-18T04:09:04;65.90;;;24.65;;
60436;SDS011;46289;51.992;4.498;2022-12-18T04:11:13;63.13;;;23.20;;
60436;SDS011;46289;51.992;4.498;2022-12-18T04:13:28;67.72;;;22.35;;
60436;SDS011;46289;51.992;4.498;2022-12-18T04:15:42;57.80;;;21.58;;
60436;SDS011;46289;51.992;4.498;2022-12-18T04:17:54;60.42;;;21.27;;
60436;SDS011;46289;51.992;4.498;2022-12-18T04:20:02;67.53;;;23.25;;
60436;SDS011;46289;51.992;4.498;2022-12-18T04:22:09;65.63;;;23.05;;
60436;SDS011;46289;51.992;4.498;2022-12-18T04:24:27;55.38;;;20.65;;
60436;SDS011;46289;51.992;4.498;2022-12-18T04:26:34;51.63;;;20.88;;
60436;SDS011;46289;51.992;4.498;2022-12-18T04:28:48;50.35;;;19.05;;
60436;SDS011;46289;51.992;4.498;2022-12-18T04:31:19;63.88;;;23.17;;
60436;SDS011;46289;51.992;4.498;2022-12-18T04:33:26;53.85;;;22.33;;
60436;SDS011;46289;51.992;4.498;2022-12-18T04:35:31;64.32;;;23.25;;
60436;SDS011;46289;51.992;4.498;2022-12-18T04:37:35;60.58;;;21.45;;
60436;SDS011;46289;51.992;4.498;2022-12-18T04:39:40;60.90;;;22.20;;
60436;SDS011;46289;51.992;4.498;2022-12-18T04:41:45;46.85;;;18.58;;
60436;SDS011;46289;51.992;4.498;2022-12-18T04:44:00;50.55;;;18.30;;
60436;SDS011;46289;51.992;4.498;2022-12-18T04:46:07;62.55;;;19.33;;
60436;SDS011;46289;51.992;4.498;2022-12-18T04:48:28;62.67;;;22.67;;
60436;SDS011;46289;51.992;4.498;2022-12-18T04:50:34;47.65;;;19.10;;
60436;SDS011;46289;51.992;4.498;2022-12-18T04:52:45;39.47;;;17.73;;
60436;SDS011;46289;51.992;4.498;2022-12-18T04:57:03;50.85;;;18.70;;
60436;SDS011;46289;51.992;4.498;2022-12-18T04:59:25;54.78;;;19.50;;
60436;SDS011;46289;51.992;4.498;2022-12-18T05:01:30;54.38;;;20.20;;
60436;SDS011;46289;51.992;4.498;2022-12-18T05:03:38;48.25;;;18.92;;
60436;SDS011;46289;51.992;4.498;2022-12-18T05:05:44;61.28;;;21.25;;
60436;SDS011;46289;51.992;4.498;2022-12-18T05:07:49;53.80;;;20.80;;
60436;SDS011;46289;51.992;4.498;2022-12-18T05:09:54;47.85;;;18.17;;
60436;SDS011;46289;51.992;4.498;2022-12-18T05:11:59;45.95;;;18.85;;
60436;SDS011;46289;51.992;4.498;2022-12-18T05:14:20;48.17;;;20.20;;
60436;SDS011;46289;51.992;4.498;2022-12-18T05:16:26;54.47;;;20.77;;
60436;SDS011;46289;51.992;4.498;2022-12-18T05:18:33;56.83;;;21.50;;
60436;SDS011;46289;51.992;4.498;2022-12-18T05:20:47;47.20;;;16.75;;
60436;SDS011;46289;51.992;4.498;2022-12-18T05:23:02;49.83;;;18.88;;
60436;SDS011;46289;51.992;4.498;2022-12-18T05:25:15;53.95;;;20.45;;
60436;SDS011;46289;51.992;4.498;2022-12-18T05:27:21;41.60;;;18.92;;
60436;SDS011;46289;51.992;4.498;2022-12-18T05:29:25;51.88;;;18.55;;
60436;SDS011;46289;51.992;4.498;2022-12-18T05:31:30;54.38;;;22.63;;
60436;SDS011;46289;51.992;4.498;2022-12-18T05:33:40;52.72;;;18.40;;
60436;SDS011;46289;51.992;4.498;2022-12-18T05:35:49;45.63;;;19.35;;
60436;SDS011;46289;51.992;4.498;2022-12-18T05:38:05;58.40;;;20.58;;
60436;SDS011;46289;51.992;4.498;2022-12-18T05:40:12;54.38;;;19.70;;
60436;SDS011;46289;51.992;4.498;2022-12-18T05:42:17;52.30;;;19.55;;
60436;SDS011;46289;51.992;4.498;2022-12-18T05:44:22;61.70;;;21.65;;
60436;SDS011;46289;51.992;4.498;2022-12-18T05:46:27;42.38;;;17.08;;
60436;SDS011;46289;51.992;4.498;2022-12-18T05:48:32;42.08;;;18.70;;
60436;SDS011;46289;51.992;4.498;2022-12-18T05:50:40;51.90;;;22.00;;
60436;SDS011;46289;51.992;4.498;2022-12-18T05:52:51;51.50;;;20.45;;
60436;SDS011;46289;51.992;4.498;2022-12-18T05:54:59;58.92;;;20.67;;
60436;SDS011;46289;51.992;4.498;2022-12-18T05:57:05;46.30;;;19.13;;
60436;SDS011;46289;51.992;4.498;2022-12-18T05:59:28;42.70;;;17.40;;
60436;SDS011;46289;51.992;4.498;2022-12-18T06:01:47;51.95;;;19.45;;
60436;SDS011;46289;51.992;4.498;2022-12-18T06:04:02;51.83;;;20.67;;
60436;SDS011;46289;51.992;4.498;2022-12-18T06:06:13;42.13;;;18.15;;
60436;SDS011;46289;51.992;4.498;2022-12-18T06:08:31;47.42;;;17.55;;
60436;SDS011;46289;51.992;4.498;2022-12-18T06:10:49;39.75;;;18.60;;
60436;SDS011;46289;51.992;4.498;2022-12-18T06:13:00;38.20;;;16.77;;
60436;SDS011;46289;51.992;4.498;2022-12-18T06:15:09;41.25;;;17.35;;
60436;SDS011;46289;51.992;4.498;2022-12-18T06:17:14;45.08;;;18.92;;
60436;SDS011;46289;51.992;4.498;2022-12-18T06:19:19;42.28;;;16.75;;
60436;SDS011;46289;51.992;4.498;2022-12-18T06:21:24;35.15;;;15.73;;
60436;SDS011;46289;51.992;4.498;2022-12-18T06:23:32;41.30;;;17.38;;
60436;SDS011;46289;51.992;4.498;2022-12-18T06:25:38;38.35;;;16.75;;
60436;SDS011;46289;51.992;4.498;2022-12-18T06:27:43;41.83;;;19.33;;
60436;SDS011;46289;51.992;4.498;2022-12-18T06:29:48;47.70;;;19.10;;
60436;SDS011;46289;51.992;4.498;2022-12-18T06:31:52;22.52;;;10.05;;
60436;SDS011;46289;51.992;4.498;2022-12-18T06:33:57;36.97;;;19.25;;
60436;SDS011;46289;51.992;4.498;2022-12-18T06:36:04;24.15;;;13.43;;
60436;SDS011;46289;51.992;4.498;2022-12-18T06:38:10;32.25;;;14.15;;
60436;SDS011;46289;51.992;4.498;2022-12-18T06:40:18;29.60;;;12.15;;
60436;SDS011;46289;51.992;4.498;2022-12-18T06:42:23;33.67;;;15.82;;
60436;SDS011;46289;51.992;4.498;2022-12-18T06:44:27;34.03;;;14.48;;
60436;SDS011;46289;51.992;4.498;2022-12-18T06:46:32;31.67;;;14.90;;
60436;SDS011;46289;51.992;4.498;2022-12-18T06:48:37;39.90;;;16.77;;
60436;SDS011;46289;51.992;4.498;2022-12-18T06:50:42;34.55;;;14.50;;
60436;SDS011;46289;51.992;4.498;2022-12-18T06:52:46;32.22;;;13.40;;
60436;SDS011;46289;51.992;4.498;2022-12-18T06:54:58;24.30;;;13.43;;
60436;SDS011;46289;51.992;4.498;2022-12-18T06:57:13;35.42;;;18.50;;
60436;SDS011;46289;51.992;4.498;2022-12-18T06:59:18;45.03;;;16.33;;
60436;SDS011;46289;51.992;4.498;2022-12-18T07:01:23;40.78;;;13.57;;
60436;SDS011;46289;51.992;4.498;2022-12-18T07:03:29;26.40;;;15.43;;
60436;SDS011;46289;51.992;4.498;2022-12-18T07:05:34;38.70;;;16.40;;
60436;SDS011;46289;51.992;4.498;2022-12-18T07:07:45;37.90;;;15.30;;
60436;SDS011;46289;51.992;4.498;2022-12-18T07:10:02;33.83;;;13.50;;
60436;SDS011;46289;51.992;4.498;2022-12-18T07:12:18;32.00;;;17.50;;
60436;SDS011;46289;51.992;4.498;2022-12-18T07:14:24;26.45;;;15.00;;
60436;SDS011;46289;51.992;4.498;2022-12-18T07:16:30;24.08;;;11.63;;
60436;SDS011;46289;51.992;4.498;2022-12-18T07:18:35;21.95;;;10.57;;
60436;SDS011;46289;51.992;4.498;2022-12-18T07:20:53;20.20;;;11.20;;
60436;SDS011;46289;51.992;4.498;2022-12-18T07:23:03;23.90;;;10.48;;
60436;SDS011;46289;51.992;4.498;2022-12-18T07:25:12;18.53;;;8.67;;
60436;SDS011;46289;51.992;4.498;2022-12-18T07:27:19;25.42;;;11.60;;
60436;SDS011;46289;51.992;4.498;2022-12-18T07:29:24;29.20;;;13.35;;
60436;SDS011;46289;51.992;4.498;2022-12-18T07:31:30;26.20;;;14.95;;
60436;SDS011;46289;51.992;4.498;2022-12-18T07:33:37;20.63;;;10.10;;
60436;SDS011;46289;51.992;4.498;2022-12-18T07:35:48;17.98;;;10.55;;
60436;SDS011;46289;51.992;4.498;2022-12-18T07:37:55;14.50;;;8.48;;
60436;SDS011;46289;51.992;4.498;2022-12-18T07:40:08;25.88;;;15.20;;
60436;SDS011;46289;51.992;4.498;2022-12-18T07:42:14;35.60;;;14.85;;
60436;SDS011;46289;51.992;4.498;2022-12-18T07:44:36;30.00;;;13.02;;
60436;SDS011;46289;51.992;4.498;2022-12-18T07:46:44;23.92;;;11.05;;
60436;SDS011;46289;51.992;4.498;2022-12-18T07:48:49;19.10;;;11.10;;
60436;SDS011;46289;51.992;4.498;2022-12-18T07:50:57;27.27;;;13.52;;
60436;SDS011;46289;51.992;4.498;2022-12-18T07:53:04;27.48;;;13.40;;
60436;SDS011;46289;51.992;4.498;2022-12-18T07:55:08;30.88;;;14.90;;
60436;SDS011;46289;51.992;4.498;2022-12-18T07:57:13;25.27;;;10.18;;
60436;SDS011;46289;51.992;4.498;2022-12-18T07:59:42;28.80;;;13.10;;
60436;SDS011;46289;51.992;4.498;2022-12-18T08:01:46;17.77;;;10.77;;
60436;SDS011;46289;51.992;4.498;2022-12-18T08:03:51;26.77;;;14.48;;
60436;SDS011;46289;51.992;4.498;2022-12-18T08:05:58;29.77;;;15.20;;
60436;SDS011;46289;51.992;4.498;2022-12-18T08:08:03;22.60;;;11.88;;
60436;SDS011;46289;51.992;4.498;2022-12-18T08:10:08;27.73;;;13.50;;
60436;SDS011;46289;51.992;4.498;2022-12-18T08:12:13;36.85;;;15.18;;
60436;SDS011;46289;51.992;4.498;2022-12-18T08:14:18;16.48;;;9.88;;
60436;SDS011;46289;51.992;4.498;2022-12-18T08:16:25;22.10;;;12.23;;
60436;SDS011;46289;51.992;4.498;2022-12-18T08:18:33;21.75;;;12.23;;
60436;SDS011;46289;51.992;4.498;2022-12-18T08:20:41;28.40;;;13.02;;
60436;SDS011;46289;51.992;4.498;2022-12-18T08:22:45;28.58;;;12.52;;
60436;SDS011;46289;51.992;4.498;2022-12-18T08:24:50;20.88;;;9.70;;
60436;SDS011;46289;51.992;4.498;2022-12-18T08:26:55;32.50;;;16.05;;
60436;SDS011;46289;51.992;4.498;2022-12-18T08:29:20;22.15;;;10.88;;
60436;SDS011;46289;51.992;4.498;2022-12-18T08:31:28;30.40;;;13.43;;
60436;SDS011;46289;51.992;4.498;2022-12-18T08:33:34;23.95;;;12.40;;
60436;SDS011;46289;51.992;4.498;2022-12-18T08:35:40;24.02;;;11.80;;
60436;SDS011;46289;51.992;4.498;2022-12-18T08:37:46;19.05;;;11.32;;
60436;SDS011;46289;51.992;4.498;2022-12-18T08:39:51;25.77;;;11.90;;
60436;SDS011;46289;51.992;4.498;2022-12-18T08:41:56;20.70;;;11.30;;
60436;SDS011;46289;51.992;4.498;2022-12-18T08:44:13;21.27;;;10.23;;
60436;SDS011;46289;51.992;4.498;2022-12-18T08:46:47;27.52;;;15.70;;
60436;SDS011;46289;51.992;4.498;2022-12-18T08:48:52;31.85;;;13.07;;
60436;SDS011;46289;51.992;4.498;2022-12-18T08:50:58;23.08;;;12.85;;
60436;SDS011;46289;51.992;4.498;2022-12-18T08:53:03;26.08;;;14.52;;
60436;SDS011;46289;51.992;4.498;2022-12-18T08:55:08;25.25;;;14.27;;
60436;SDS011;46289;51.992;4.498;2022-12-18T08:57:13;29.02;;;13.02;;
60436;SDS011;46289;51.992;4.498;2022-12-18T08:59:18;23.90;;;12.40;;
60436;SDS011;46289;51.992;4.498;2022-12-18T09:01:24;31.80;;;15.90;;
60436;SDS011;46289;51.992;4.498;2022-12-18T09:03:32;27.67;;;15.13;;
60436;SDS011;46289;51.992;4.498;2022-12-18T09:05:38;26.67;;;13.57;;
60436;SDS011;46289;51.992;4.498;2022-12-18T09:07:42;24.95;;;13.95;;
60436;SDS011;46289;51.992;4.498;2022-12-18T09:09:47;35.20;;;13.15;;
60436;SDS011;46289;51.992;4.498;2022-12-18T09:11:59;25.45;;;13.50;;
60436;SDS011;46289;51.992;4.498;2022-12-18T09:14:05;23.20;;;13.00;;
60436;SDS011;46289;51.992;4.498;2022-12-18T09:16:11;30.90;;;15.45;;
60436;SDS011;46289;51.992;4.498;2022-12-18T09:18:17;32.80;;;14.10;;
60436;SDS011;46289;51.992;4.498;2022-12-18T09:20:25;31.83;;;12.60;;
60436;SDS011;46289;51.992;4.498;2022-12-18T09:22:31;24.77;;;12.48;;
60436;SDS011;46289;51.992;4.498;2022-12-18T09:24:36;22.60;;;13.00;;
60436;SDS011;46289;51.992;4.498;2022-12-18T09:26:40;27.25;;;14.13;;
60436;SDS011;46289;51.992;4.498;2022-12-18T09:28:47;26.45;;;15.07;;
60436;SDS011;46289;51.992;4.498;2022-12-18T09:30:52;16.88;;;9.20;;
60436;SDS011;46289;51.992;4.498;2022-12-18T09:33:00;19.15;;;10.55;;
60436;SDS011;46289;51.992;4.498;2022-12-18T09:35:07;28.83;;;10.85;;
60436;SDS011;46289;51.992;4.498;2022-12-18T09:37:15;29.35;;;15.20;;
60436;SDS011;46289;51.992;4.498;2022-12-18T09:39:20;29.08;;;13.10;;
60436;SDS011;46289;51.992;4.498;2022-12-18T09:41:31;21.80;;;12.02;;
60436;SDS011;46289;51.992;4.498;2022-12-18T09:43:45;27.35;;;13.55;;
60436;SDS011;46289;51.992;4.498;2022-12-18T09:45:51;21.92;;;11.52;;
60436;SDS011;46289;51.992;4.498;2022-12-18T09:48:04;26.38;;;14.18;;
60436;SDS011;46289;51.992;4.498;2022-12-18T09:50:16;19.17;;;10.95;;
60436;SDS011;46289;51.992;4.498;2022-12-18T09:52:29;27.10;;;11.75;;
60436;SDS011;46289;51.992;4.498;2022-12-18T09:54:48;30.75;;;12.18;;
60436;SDS011;46289;51.992;4.498;2022-12-18T09:57:00;21.15;;;12.18;;
60436;SDS011;46289;51.992;4.498;2022-12-18T09:59:04;20.27;;;7.60;;
60436;SDS011;46289;51.992;4.498;2022-12-18T10:01:10;25.35;;;11.48;;
60436;SDS011;46289;51.992;4.498;2022-12-18T10:03:15;25.50;;;11.35;;
60436;SDS011;46289;51.992;4.498;2022-12-18T10:05:20;31.95;;;14.93;;
60436;SDS011;46289;51.992;4.498;2022-12-18T10:10:19;22.70;;;10.98;;
60436;SDS011;46289;51.992;4.498;2022-12-18T10:12:31;24.67;;;12.63;;
60436;SDS011;46289;51.992;4.498;2022-12-18T10:14:41;26.42;;;13.75;;
60436;SDS011;46289;51.992;4.498;2022-12-18T10:16:52;26.92;;;12.73;;
60436;SDS011;46289;51.992;4.498;2022-12-18T10:19:08;28.55;;;13.77;;
60436;SDS011;46289;51.992;4.498;2022-12-18T10:21:18;18.90;;;10.70;;
60436;SDS011;46289;51.992;4.498;2022-12-18T10:23:30;26.40;;;12.60;;
60436;SDS011;46289;51.992;4.498;2022-12-18T10:25:50;25.05;;;13.57;;
60436;SDS011;46289;51.992;4.498;2022-12-18T10:28:07;23.42;;;11.02;;
60436;SDS011;46289;51.992;4.498;2022-12-18T10:30:19;26.73;;;13.20;;
60436;SDS011;46289;51.992;4.498;2022-12-18T10:32:25;26.00;;;14.52;;
60436;SDS011;46289;51.992;4.498;2022-12-18T10:34:32;17.90;;;9.30;;
60436;SDS011;46289;51.992;4.498;2022-12-18T10:36:47;26.88;;;14.05;;
60436;SDS011;46289;51.992;4.498;2022-12-18T10:38:54;28.20;;;14.25;;
60436;SDS011;46289;51.992;4.498;2022-12-18T10:41:23;19.65;;;9.55;;
60436;SDS011;46289;51.992;4.498;2022-12-18T10:43:32;16.70;;;9.10;;
60436;SDS011;46289;51.992;4.498;2022-12-18T10:45:38;32.22;;;14.98;;
60436;SDS011;46289;51.992;4.498;2022-12-18T10:47:43;26.88;;;14.52;;
60436;SDS011;46289;51.992;4.498;2022-12-18T10:49:52;39.40;;;16.63;;
60436;SDS011;46289;51.992;4.498;2022-12-18T10:52:04;28.95;;;14.30;;
60436;SDS011;46289;51.992;4.498;2022-12-18T10:54:15;31.80;;;15.25;;
60436;SDS011;46289;51.992;4.498;2022-12-18T10:56:23;22.67;;;11.75;;
60436;SDS011;46289;51.992;4.498;2022-12-18T10:58:30;29.75;;;14.43;;
60436;SDS011;46289;51.992;4.498;2022-12-18T11:00:36;26.25;;;12.50;;
60436;SDS011;46289;51.992;4.498;2022-12-18T11:02:41;22.60;;;12.52;;
60436;SDS011;46289;51.992;4.498;2022-12-18T11:04:49;30.13;;;14.20;;
60436;SDS011;46289;51.992;4.498;2022-12-18T11:06:56;28.33;;;15.10;;
60436;SDS011;46289;51.992;4.498;2022-12-18T11:09:03;28.08;;;14.88;;
60436;SDS011;46289;51.992;4.498;2022-12-18T11:11:19;26.77;;;13.93;;
60436;SDS011;46289;51.992;4.498;2022-12-18T11:13:25;28.05;;;13.55;;
60436;SDS011;46289;51.992;4.498;2022-12-18T11:15:31;34.55;;;15.70;;
60436;SDS011;46289;51.992;4.498;2022-12-18T11:17:37;22.60;;;14.35;;
60436;SDS011;46289;51.992;4.498;2022-12-18T11:19:43;31.75;;;14.90;;
60436;SDS011;46289;51.992;4.498;2022-12-18T11:21:48;33.45;;;15.98;;
60436;SDS011;46289;51.992;4.498;2022-12-18T11:23:54;25.52;;;12.30;;
60436;SDS011;46289;51.992;4.498;2022-12-18T11:26:01;29.88;;;15.05;;
60436;SDS011;46289;51.992;4.498;2022-12-18T11:32:49;28.63;;;14.17;;
60436;SDS011;46289;51.992;4.498;2022-12-18T11:34:55;22.00;;;12.13;;
60436;SDS011;46289;51.992;4.498;2022-12-18T11:37:07;29.15;;;13.55;;
60436;SDS011;46289;51.992;4.498;2022-12-18T11:39:16;26.40;;;12.60;;
60436;SDS011;46289;51.992;4.498;2022-12-18T11:41:32;36.25;;;15.57;;
60436;SDS011;46289;51.992;4.498;2022-12-18T11:43:58;31.05;;;15.32;;
60436;SDS011;46289;51.992;4.498;2022-12-18T11:46:06;29.33;;;14.05;;
60436;SDS011;46289;51.992;4.498;2022-12-18T11:48:21;29.83;;;15.60;;
60436;SDS011;46289;51.992;4.498;2022-12-18T11:50:29;21.75;;;13.93;;
60436;SDS011;46289;51.992;4.498;2022-12-18T11:52:39;27.80;;;13.13;;
60436;SDS011;46289;51.992;4.498;2022-12-18T11:54:45;31.30;;;13.38;;
60436;SDS011;46289;51.992;4.498;2022-12-18T11:56:51;29.60;;;14.95;;
60436;SDS011;46289;51.992;4.498;2022-12-18T11:59:03;31.98;;;14.13;;
60436;SDS011;46289;51.992;4.498;2022-12-18T12:01:20;29.58;;;14.38;;
60436;SDS011;46289;51.992;4.498;2022-12-18T12:03:38;31.52;;;15.85;;
60436;SDS011;46289;51.992;4.498;2022-12-18T12:06:02;25.95;;;16.17;;
60436;SDS011;46289;51.992;4.498;2022-12-18T12:08:13;36.83;;;16.77;;
60436;SDS011;46289;51.992;4.498;2022-12-18T12:10:27;27.23;;;15.55;;
60436;SDS011;46289;51.992;4.498;2022-12-18T12:12:52;30.45;;;15.05;;
60436;SDS011;46289;51.992;4.498;2022-12-18T12:15:06;32.40;;;14.90;;
60436;SDS011;46289;51.992;4.498;2022-12-18T12:17:24;34.25;;;14.35;;
60436;SDS011;46289;51.992;4.498;2022-12-18T12:19:36;18.70;;;8.75;;
60436;SDS011;46289;51.992;4.498;2022-12-18T12:21:46;25.73;;;14.75;;
60436;SDS011;46289;51.992;4.498;2022-12-18T12:23:55;31.67;;;15.73;;
60436;SDS011;46289;51.992;4.498;2022-12-18T12:26:22;21.70;;;13.30;;
60436;SDS011;46289;51.992;4.498;2022-12-18T12:31:43;27.38;;;13.32;;
60436;SDS011;46289;51.992;4.498;2022-12-18T12:34:15;21.52;;;11.93;;
60436;SDS011;46289;51.992;4.498;2022-12-18T12:36:30;28.40;;;14.60;;
60436;SDS011;46289;51.992;4.498;2022-12-18T12:38:40;34.17;;;16.33;;
60436;SDS011;46289;51.992;4.498;2022-12-18T12:40:52;30.67;;;16.30;;
60436;SDS011;46289;51.992;4.498;2022-12-18T12:43:07;25.08;;;12.63;;
60436;SDS011;46289;51.992;4.498;2022-12-18T12:45:15;26.25;;;15.40;;
60436;SDS011;46289;51.992;4.498;2022-12-18T12:47:29;30.23;;;15.02;;
60436;SDS011;46289;51.992;4.498;2022-12-18T12:49:39;39.85;;;17.95;;
60436;SDS011;46289;51.992;4.498;2022-12-18T12:51:52;36.35;;;19.13;;
60436;SDS011;46289;51.992;4.498;2022-12-18T12:54:02;30.30;;;15.10;;
60436;SDS011;46289;51.992;4.498;2022-12-18T12:56:18;25.50;;;14.68;;
60436;SDS011;46289;51.992;4.498;2022-12-18T12:58:30;30.63;;;15.23;;
60436;SDS011;46289;51.992;4.498;2022-12-18T13:00:43;30.23;;;16.40;;
60436;SDS011;46289;51.992;4.498;2022-12-18T13:02:59;35.03;;;16.73;;
60436;SDS011;46289;51.992;4.498;2022-12-18T13:05:10;35.70;;;18.33;;
60436;SDS011;46289;51.992;4.498;2022-12-18T13:07:24;33.75;;;14.88;;